sensor_id;sensor_type;location;lat;lon;timestamp;temperature;humidity
19340;HTU21D;9804;52.350;6.684;2022-12-05T00:01:26;6.50;-6.00
19340;HTU21D;9804;52.350;6.684;2022-12-05T00:03:53;6.55;-6.00
19340;HTU21D;9804;52.350;6.684;2022-12-05T00:06:20;6.45;-6.00
19340;HTU21D;9804;52.350;6.684;2022-12-05T00:08:47;6.61;-6.00
19340;HTU21D;9804;52.350;6.684;2022-12-05T00:11:16;6.31;-6.00
19340;HTU21D;9804;52.350;6.684;2022-12-05T00:13:41;6.49;-6.00
19340;HTU21D;9804;52.350;6.684;2022-12-05T00:16:09;6.45;-6.00
19340;HTU21D;9804;52.350;6.684;2022-12-05T00:18:35;6.52;-6.00
19340;HTU21D;9804;52.350;6.684;2022-12-05T00:21:00;6.52;-6.00
19340;HTU21D;9804;52.350;6.684;2022-12-05T00:23:25;6.53;-6.00
19340;HTU21D;9804;52.350;6.684;2022-12-05T00:25:51;6.67;-6.00
19340;HTU21D;9804;52.350;6.684;2022-12-05T00:28:16;6.79;-6.00
19340;HTU21D;9804;52.350;6.684;2022-12-05T00:30:41;6.66;-6.00
19340;HTU21D;9804;52.350;6.684;2022-12-05T00:33:07;6.61;-6.00
19340;HTU21D;9804;52.350;6.684;2022-12-05T00:35:32;6.63;-6.00
19340;HTU21D;9804;52.350;6.684;2022-12-05T00:37:58;6.56;-6.00
19340;HTU21D;9804;52.350;6.684;2022-12-05T00:40:23;6.63;-6.00
19340;HTU21D;9804;52.350;6.684;2022-12-05T00:42:49;6.76;-6.00
19340;HTU21D;9804;52.350;6.684;2022-12-05T00:45:14;6.79;-6.00
19340;HTU21D;9804;52.350;6.684;2022-12-05T00:47:39;6.73;-6.00
19340;HTU21D;9804;52.350;6.684;2022-12-05T00:50:05;6.48;-6.00
19340;HTU21D;9804;52.350;6.684;2022-12-05T00:52:31;6.79;-6.00
19340;HTU21D;9804;52.350;6.684;2022-12-05T00:54:56;6.72;-6.00
19340;HTU21D;9804;52.350;6.684;2022-12-05T00:57:21;6.67;-6.00
19340;HTU21D;9804;52.350;6.684;2022-12-05T00:59:47;6.57;-6.00
19340;HTU21D;9804;52.350;6.684;2022-12-05T01:02:12;6.88;-6.00
19340;HTU21D;9804;52.350;6.684;2022-12-05T01:04:38;6.73;-6.00
19340;HTU21D;9804;52.350;6.684;2022-12-05T01:07:03;6.78;-6.00
19340;HTU21D;9804;52.350;6.684;2022-12-05T01:09:29;6.83;-6.00
19340;HTU21D;9804;52.350;6.684;2022-12-05T01:11:54;6.85;-6.00
19340;HTU21D;9804;52.350;6.684;2022-12-05T01:14:22;6.58;-6.00
19340;HTU21D;9804;52.350;6.684;2022-12-05T01:16:49;6.80;-6.00
19340;HTU21D;9804;52.350;6.684;2022-12-05T01:19:24;6.91;-6.00
19340;HTU21D;9804;52.350;6.684;2022-12-05T01:21:50;6.80;-6.00
19340;HTU21D;9804;52.350;6.684;2022-12-05T01:24:17;6.94;-6.00
19340;HTU21D;9804;52.350;6.684;2022-12-05T01:26:43;6.95;-6.00
19340;HTU21D;9804;52.350;6.684;2022-12-05T01:29:11;6.94;-6.00
19340;HTU21D;9804;52.350;6.684;2022-12-05T01:31:37;6.97;-6.00
19340;HTU21D;9804;52.350;6.684;2022-12-05T01:34:05;7.09;-6.00
19340;HTU21D;9804;52.350;6.684;2022-12-05T01:36:31;7.17;-6.00
19340;HTU21D;9804;52.350;6.684;2022-12-05T01:38:57;6.97;-6.00
19340;HTU21D;9804;52.350;6.684;2022-12-05T01:41:25;6.87;-6.00
19340;HTU21D;9804;52.350;6.684;2022-12-05T01:44:00;7.12;-6.00
19340;HTU21D;9804;52.350;6.684;2022-12-05T01:46:27;6.95;-6.00
19340;HTU21D;9804;52.350;6.684;2022-12-05T01:48:58;6.87;-6.00
19340;HTU21D;9804;52.350;6.684;2022-12-05T01:51:24;6.94;-6.00
19340;HTU21D;9804;52.350;6.684;2022-12-05T01:53:50;7.01;-6.00
19340;HTU21D;9804;52.350;6.684;2022-12-05T01:56:16;7.05;-6.00
19340;HTU21D;9804;52.350;6.684;2022-12-05T01:58:43;7.04;-6.00
19340;HTU21D;9804;52.350;6.684;2022-12-05T02:01:10;7.10;-6.00
19340;HTU21D;9804;52.350;6.684;2022-12-05T02:03:36;6.82;-6.00
19340;HTU21D;9804;52.350;6.684;2022-12-05T02:06:02;6.70;-6.00
19340;HTU21D;9804;52.350;6.684;2022-12-05T02:08:28;6.74;-6.00
19340;HTU21D;9804;52.350;6.684;2022-12-05T02:10:55;6.78;-6.00
19340;HTU21D;9804;52.350;6.684;2022-12-05T02:13:31;6.90;-6.00
19340;HTU21D;9804;52.350;6.684;2022-12-05T02:18:49;6.74;-6.00
19340;HTU21D;9804;52.350;6.684;2022-12-05T02:21:37;6.74;-6.00
19340;HTU21D;9804;52.350;6.684;2022-12-05T02:27:43;6.83;-6.00
19340;HTU21D;9804;52.350;6.684;2022-12-05T02:30:23;6.52;-6.00
19340;HTU21D;9804;52.350;6.684;2022-12-05T02:33:03;6.54;-6.00
19340;HTU21D;9804;52.350;6.684;2022-12-05T02:38:27;6.64;-6.00
19340;HTU21D;9804;52.350;6.684;2022-12-05T02:41:15;6.60;-6.00
19340;HTU21D;9804;52.350;6.684;2022-12-05T02:46:24;6.59;-6.00
19340;HTU21D;9804;52.350;6.684;2022-12-05T02:48:53;6.45;-6.00
19340;HTU21D;9804;52.350;6.684;2022-12-05T02:51:21;6.45;-6.00
19340;HTU21D;9804;52.350;6.684;2022-12-05T02:53:49;6.67;-6.00
19340;HTU21D;9804;52.350;6.684;2022-12-05T02:56:14;6.26;-6.00
19340;HTU21D;9804;52.350;6.684;2022-12-05T02:58:46;6.55;-6.00
19340;HTU21D;9804;52.350;6.684;2022-12-05T03:01:13;6.50;-6.00
19340;HTU21D;9804;52.350;6.684;2022-12-05T03:03:39;6.84;-6.00
19340;HTU21D;9804;52.350;6.684;2022-12-05T03:06:14;6.74;-6.00
19340;HTU21D;9804;52.350;6.684;2022-12-05T03:08:55;6.91;-6.00
19340;HTU21D;9804;52.350;6.684;2022-12-05T03:11:22;6.91;-6.00
19340;HTU21D;9804;52.350;6.684;2022-12-05T03:13:51;6.96;-6.00
19340;HTU21D;9804;52.350;6.684;2022-12-05T03:16:24;7.02;-6.00
19340;HTU21D;9804;52.350;6.684;2022-12-05T03:18:55;6.99;-6.00
19340;HTU21D;9804;52.350;6.684;2022-12-05T03:21:30;7.11;-6.00
19340;HTU21D;9804;52.350;6.684;2022-12-05T03:24:04;7.10;-6.00
19340;HTU21D;9804;52.350;6.684;2022-12-05T03:26:38;6.83;-6.00
19340;HTU21D;9804;52.350;6.684;2022-12-05T03:31:53;7.02;-6.00
19340;HTU21D;9804;52.350;6.684;2022-12-05T03:36:56;7.05;-6.00
19340;HTU21D;9804;52.350;6.684;2022-12-05T03:39:30;7.13;-6.00
19340;HTU21D;9804;52.350;6.684;2022-12-05T03:42:12;7.16;-6.00
19340;HTU21D;9804;52.350;6.684;2022-12-05T03:44:56;7.19;-6.00
19340;HTU21D;9804;52.350;6.684;2022-12-05T03:50:22;6.90;-6.00
19340;HTU21D;9804;52.350;6.684;2022-12-05T03:53:04;7.23;-6.00
19340;HTU21D;9804;52.350;6.684;2022-12-05T03:55:34;7.27;-6.00
19340;HTU21D;9804;52.350;6.684;2022-12-05T03:58:06;7.14;-6.00
19340;HTU21D;9804;52.350;6.684;2022-12-05T04:00:35;7.20;-6.00
19340;HTU21D;9804;52.350;6.684;2022-12-05T04:03:12;7.25;-6.00
19340;HTU21D;9804;52.350;6.684;2022-12-05T04:05:46;7.20;-6.00
19340;HTU21D;9804;52.350;6.684;2022-12-05T04:08:18;7.22;-6.00
19340;HTU21D;9804;52.350;6.684;2022-12-05T04:10:46;7.14;-6.00
19340;HTU21D;9804;52.350;6.684;2022-12-05T04:13:21;7.26;-6.00
19340;HTU21D;9804;52.350;6.684;2022-12-05T04:15:53;7.30;-6.00
19340;HTU21D;9804;52.350;6.684;2022-12-05T04:21:25;7.07;-6.00
19340;HTU21D;9804;52.350;6.684;2022-12-05T04:24:08;7.12;-6.00
19340;HTU21D;9804;52.350;6.684;2022-12-05T04:32:45;7.16;-6.00
19340;HTU21D;9804;52.350;6.684;2022-12-05T04:35:17;7.41;-6.00
19340;HTU21D;9804;52.350;6.684;2022-12-05T04:37:46;7.16;-6.00
19340;HTU21D;9804;52.350;6.684;2022-12-05T04:40:27;7.26;-6.00
19340;HTU21D;9804;52.350;6.684;2022-12-05T04:42:54;7.26;-6.00
19340;HTU21D;9804;52.350;6.684;2022-12-05T04:45:21;7.38;-6.00
19340;HTU21D;9804;52.350;6.684;2022-12-05T04:47:53;7.31;-6.00
19340;HTU21D;9804;52.350;6.684;2022-12-05T04:50:20;7.35;-6.00
19340;HTU21D;9804;52.350;6.684;2022-12-05T04:52:49;7.34;-6.00
19340;HTU21D;9804;52.350;6.684;2022-12-05T04:55:20;7.17;-6.00
19340;HTU21D;9804;52.350;6.684;2022-12-05T04:58:09;7.25;-6.00
19340;HTU21D;9804;52.350;6.684;2022-12-05T05:00:47;7.28;-6.00
19340;HTU21D;9804;52.350;6.684;2022-12-05T05:05:50;7.49;-6.00
19340;HTU21D;9804;52.350;6.684;2022-12-05T05:08:23;7.48;-6.00
19340;HTU21D;9804;52.350;6.684;2022-12-05T05:11:11;7.40;-6.00
19340;HTU21D;9804;52.350;6.684;2022-12-05T05:13:37;7.23;-6.00
19340;HTU21D;9804;52.350;6.684;2022-12-05T05:16:03;7.33;-6.00
19340;HTU21D;9804;52.350;6.684;2022-12-05T05:18:28;7.31;-6.00
19340;HTU21D;9804;52.350;6.684;2022-12-05T05:20:54;7.17;-6.00
19340;HTU21D;9804;52.350;6.684;2022-12-05T05:23:19;7.31;-6.00
19340;HTU21D;9804;52.350;6.684;2022-12-05T05:25:45;7.34;-6.00
19340;HTU21D;9804;52.350;6.684;2022-12-05T05:28:10;7.42;-6.00
19340;HTU21D;9804;52.350;6.684;2022-12-05T05:30:35;7.55;-6.00
19340;HTU21D;9804;52.350;6.684;2022-12-05T05:33:01;7.35;-6.00
19340;HTU21D;9804;52.350;6.684;2022-12-05T05:35:26;7.60;-6.00
19340;HTU21D;9804;52.350;6.684;2022-12-05T05:37:51;7.46;-6.00
19340;HTU21D;9804;52.350;6.684;2022-12-05T05:40:17;7.45;-6.00
19340;HTU21D;9804;52.350;6.684;2022-12-05T05:42:47;7.38;-6.00
19340;HTU21D;9804;52.350;6.684;2022-12-05T05:45:14;7.49;-6.00
19340;HTU21D;9804;52.350;6.684;2022-12-05T05:47:41;7.45;-6.00
19340;HTU21D;9804;52.350;6.684;2022-12-05T05:50:08;7.46;-6.00
19340;HTU21D;9804;52.350;6.684;2022-12-05T05:52:35;7.55;-6.00
19340;HTU21D;9804;52.350;6.684;2022-12-05T05:55:02;7.33;-6.00
19340;HTU21D;9804;52.350;6.684;2022-12-05T05:57:29;7.31;-6.00
19340;HTU21D;9804;52.350;6.684;2022-12-05T05:59:55;7.41;-6.00
19340;HTU21D;9804;52.350;6.684;2022-12-05T06:02:20;7.46;-6.00
19340;HTU21D;9804;52.350;6.684;2022-12-05T06:04:46;7.55;-6.00
19340;HTU21D;9804;52.350;6.684;2022-12-05T06:07:11;7.52;-6.00
19340;HTU21D;9804;52.350;6.684;2022-12-05T06:09:37;7.48;-6.00
19340;HTU21D;9804;52.350;6.684;2022-12-05T06:12:02;7.38;-6.00
19340;HTU21D;9804;52.350;6.684;2022-12-05T06:14:28;7.47;-6.00
19340;HTU21D;9804;52.350;6.684;2022-12-05T06:16:53;7.62;-6.00
19340;HTU21D;9804;52.350;6.684;2022-12-05T06:19:18;7.53;-6.00
19340;HTU21D;9804;52.350;6.684;2022-12-05T06:21:44;7.53;-6.00
19340;HTU21D;9804;52.350;6.684;2022-12-05T06:24:09;7.67;-6.00
19340;HTU21D;9804;52.350;6.684;2022-12-05T06:26:34;7.49;-6.00
19340;HTU21D;9804;52.350;6.684;2022-12-05T06:29:00;7.49;-6.00
19340;HTU21D;9804;52.350;6.684;2022-12-05T06:31:25;7.44;-6.00
19340;HTU21D;9804;52.350;6.684;2022-12-05T06:33:52;7.50;-6.00
19340;HTU21D;9804;52.350;6.684;2022-12-05T06:36:20;7.64;-6.00
19340;HTU21D;9804;52.350;6.684;2022-12-05T06:38:46;7.53;-6.00
19340;HTU21D;9804;52.350;6.684;2022-12-05T06:41:18;7.54;-6.00
19340;HTU21D;9804;52.350;6.684;2022-12-05T06:43:44;7.49;-6.00
19340;HTU21D;9804;52.350;6.684;2022-12-05T06:46:11;7.56;-6.00
19340;HTU21D;9804;52.350;6.684;2022-12-05T06:48:37;7.54;-6.00
19340;HTU21D;9804;52.350;6.684;2022-12-05T06:51:03;7.58;-6.00
19340;HTU21D;9804;52.350;6.684;2022-12-05T06:53:28;7.65;-6.00
19340;HTU21D;9804;52.350;6.684;2022-12-05T06:55:58;7.70;-6.00
19340;HTU21D;9804;52.350;6.684;2022-12-05T06:58:24;7.72;-6.00
19340;HTU21D;9804;52.350;6.684;2022-12-05T07:00:50;7.65;-6.00
19340;HTU21D;9804;52.350;6.684;2022-12-05T07:03:34;7.49;-6.00
19340;HTU21D;9804;52.350;6.684;2022-12-05T07:06:04;7.63;-6.00
19340;HTU21D;9804;52.350;6.684;2022-12-05T07:08:31;7.68;-6.00
19340;HTU21D;9804;52.350;6.684;2022-12-05T07:10:56;7.82;-6.00
19340;HTU21D;9804;52.350;6.684;2022-12-05T07:13:22;7.77;-6.00
19340;HTU21D;9804;52.350;6.684;2022-12-05T07:15:48;7.72;-6.00
19340;HTU21D;9804;52.350;6.684;2022-12-05T07:18:15;7.50;-6.00
19340;HTU21D;9804;52.350;6.684;2022-12-05T07:20:41;7.58;-6.00
19340;HTU21D;9804;52.350;6.684;2022-12-05T07:23:06;7.74;-6.00
19340;HTU21D;9804;52.350;6.684;2022-12-05T07:25:32;7.72;-6.00
19340;HTU21D;9804;52.350;6.684;2022-12-05T07:27:57;7.77;-6.00
19340;HTU21D;9804;52.350;6.684;2022-12-05T07:30:22;7.70;-6.00
19340;HTU21D;9804;52.350;6.684;2022-12-05T07:32:47;7.86;-6.00
19340;HTU21D;9804;52.350;6.684;2022-12-05T07:35:13;7.69;-6.00
19340;HTU21D;9804;52.350;6.684;2022-12-05T07:37:38;7.72;-6.00
19340;HTU21D;9804;52.350;6.684;2022-12-05T07:40:04;7.65;-6.00
19340;HTU21D;9804;52.350;6.684;2022-12-05T07:42:30;7.76;-6.00
19340;HTU21D;9804;52.350;6.684;2022-12-05T07:44:55;7.75;-6.00
19340;HTU21D;9804;52.350;6.684;2022-12-05T07:47:20;7.81;-6.00
19340;HTU21D;9804;52.350;6.684;2022-12-05T07:49:46;7.63;-6.00
19340;HTU21D;9804;52.350;6.684;2022-12-05T07:52:11;7.75;-6.00
19340;HTU21D;9804;52.350;6.684;2022-12-05T07:54:36;7.84;-6.00
19340;HTU21D;9804;52.350;6.684;2022-12-05T07:57:02;7.84;-6.00
19340;HTU21D;9804;52.350;6.684;2022-12-05T07:59:27;8.01;-6.00
19340;HTU21D;9804;52.350;6.684;2022-12-05T08:01:53;7.76;-6.00
19340;HTU21D;9804;52.350;6.684;2022-12-05T08:04:18;7.78;-6.00
19340;HTU21D;9804;52.350;6.684;2022-12-05T08:06:43;7.69;-6.00
19340;HTU21D;9804;52.350;6.684;2022-12-05T08:09:10;7.78;-6.00
19340;HTU21D;9804;52.350;6.684;2022-12-05T08:11:35;7.98;-6.00
19340;HTU21D;9804;52.350;6.684;2022-12-05T08:14:03;8.06;-6.00
19340;HTU21D;9804;52.350;6.684;2022-12-05T08:16:29;8.00;-6.00
19340;HTU21D;9804;52.350;6.684;2022-12-05T08:19:05;7.99;-6.00
19340;HTU21D;9804;52.350;6.684;2022-12-05T08:21:31;7.91;-6.00
19340;HTU21D;9804;52.350;6.684;2022-12-05T08:23:57;7.93;-6.00
19340;HTU21D;9804;52.350;6.684;2022-12-05T08:26:25;7.84;-6.00
19340;HTU21D;9804;52.350;6.684;2022-12-05T08:28:52;7.93;-6.00
19340;HTU21D;9804;52.350;6.684;2022-12-05T08:31:19;7.84;-6.00
19340;HTU21D;9804;52.350;6.684;2022-12-05T08:33:45;8.02;-6.00
19340;HTU21D;9804;52.350;6.684;2022-12-05T08:36:12;8.12;-6.00
19340;HTU21D;9804;52.350;6.684;2022-12-05T08:38:39;8.01;-6.00
19340;HTU21D;9804;52.350;6.684;2022-12-05T08:41:07;8.12;-6.00
19340;HTU21D;9804;52.350;6.684;2022-12-05T08:43:33;8.26;-6.00
19340;HTU21D;9804;52.350;6.684;2022-12-05T08:45:59;8.22;-6.00
19340;HTU21D;9804;52.350;6.684;2022-12-05T08:48:27;8.19;-6.00
19340;HTU21D;9804;52.350;6.684;2022-12-05T08:50:53;8.13;-6.00
19340;HTU21D;9804;52.350;6.684;2022-12-05T08:53:18;8.18;-6.00
19340;HTU21D;9804;52.350;6.684;2022-12-05T08:55:43;8.26;-6.00
19340;HTU21D;9804;52.350;6.684;2022-12-05T08:58:12;8.23;-6.00
19340;HTU21D;9804;52.350;6.684;2022-12-05T09:00:38;8.33;-6.00
19340;HTU21D;9804;52.350;6.684;2022-12-05T09:03:04;8.26;-6.00
19340;HTU21D;9804;52.350;6.684;2022-12-05T09:05:29;8.43;-6.00
19340;HTU21D;9804;52.350;6.684;2022-12-05T09:07:55;8.39;-6.00
19340;HTU21D;9804;52.350;6.684;2022-12-05T09:10:20;8.41;-6.00
19340;HTU21D;9804;52.350;6.684;2022-12-05T09:12:46;8.19;-6.00
19340;HTU21D;9804;52.350;6.684;2022-12-05T09:15:11;8.19;-6.00
19340;HTU21D;9804;52.350;6.684;2022-12-05T09:17:37;8.30;-6.00
19340;HTU21D;9804;52.350;6.684;2022-12-05T09:20:05;8.34;-6.00
19340;HTU21D;9804;52.350;6.684;2022-12-05T09:22:31;8.35;-6.00
19340;HTU21D;9804;52.350;6.684;2022-12-05T09:24:57;8.23;-6.00
19340;HTU21D;9804;52.350;6.684;2022-12-05T09:27:22;8.46;-6.00
19340;HTU21D;9804;52.350;6.684;2022-12-05T09:29:47;8.34;-6.00
19340;HTU21D;9804;52.350;6.684;2022-12-05T09:32:13;8.45;-6.00
19340;HTU21D;9804;52.350;6.684;2022-12-05T09:34:38;8.34;-6.00
19340;HTU21D;9804;52.350;6.684;2022-12-05T09:37:05;8.44;-6.00
19340;HTU21D;9804;52.350;6.684;2022-12-05T09:39:31;8.35;-6.00
19340;HTU21D;9804;52.350;6.684;2022-12-05T09:42:12;8.47;-6.00
19340;HTU21D;9804;52.350;6.684;2022-12-05T09:47:35;8.53;-6.00
19340;HTU21D;9804;52.350;6.684;2022-12-05T09:50:25;8.56;-6.00
19340;HTU21D;9804;52.350;6.684;2022-12-05T09:53:05;8.64;-6.00
19340;HTU21D;9804;52.350;6.684;2022-12-05T09:58:25;8.57;-6.00
19340;HTU21D;9804;52.350;6.684;2022-12-05T10:00:58;8.62;-6.00
19340;HTU21D;9804;52.350;6.684;2022-12-05T10:03:36;8.70;-6.00
19340;HTU21D;9804;52.350;6.684;2022-12-05T10:06:25;8.65;-6.00
19340;HTU21D;9804;52.350;6.684;2022-12-05T10:11:50;8.57;-6.00
19340;HTU21D;9804;52.350;6.684;2022-12-05T10:17:37;8.46;-6.00
19340;HTU21D;9804;52.350;6.684;2022-12-05T10:20:11;8.48;-6.00
19340;HTU21D;9804;52.350;6.684;2022-12-05T10:25:09;8.48;-6.00
19340;HTU21D;9804;52.350;6.684;2022-12-05T10:27:40;8.48;-6.00
19340;HTU21D;9804;52.350;6.684;2022-12-05T10:32:51;8.50;-6.00
19340;HTU21D;9804;52.350;6.684;2022-12-05T10:35:26;8.60;-6.00
19340;HTU21D;9804;52.350;6.684;2022-12-05T10:37:56;8.21;-6.00
19340;HTU21D;9804;52.350;6.684;2022-12-05T10:40:25;8.39;-6.00
19340;HTU21D;9804;52.350;6.684;2022-12-05T10:42:51;8.47;-6.00
19340;HTU21D;9804;52.350;6.684;2022-12-05T10:45:21;8.50;-6.00
19340;HTU21D;9804;52.350;6.684;2022-12-05T10:47:47;8.50;-6.00
19340;HTU21D;9804;52.350;6.684;2022-12-05T10:50:35;8.50;-6.00
19340;HTU21D;9804;52.350;6.684;2022-12-05T10:53:02;8.41;-6.00
19340;HTU21D;9804;52.350;6.684;2022-12-05T10:55:45;8.43;-6.00
19340;HTU21D;9804;52.350;6.684;2022-12-05T10:58:15;8.49;-6.00
19340;HTU21D;9804;52.350;6.684;2022-12-05T11:00:47;8.50;-6.00
19340;HTU21D;9804;52.350;6.684;2022-12-05T11:03:31;8.57;-6.00
19340;HTU21D;9804;52.350;6.684;2022-12-05T11:06:01;8.57;-6.00
19340;HTU21D;9804;52.350;6.684;2022-12-05T11:08:29;8.57;-6.00
19340;HTU21D;9804;52.350;6.684;2022-12-05T11:11:23;8.52;-6.00
19340;HTU21D;9804;52.350;6.684;2022-12-05T11:14:04;8.50;-6.00
19340;HTU21D;9804;52.350;6.684;2022-12-05T11:16:32;8.34;-6.00
19340;HTU21D;9804;52.350;6.684;2022-12-05T11:22:16;8.51;-6.00
19340;HTU21D;9804;52.350;6.684;2022-12-05T11:24:41;8.50;-6.00
19340;HTU21D;9804;52.350;6.684;2022-12-05T11:29:42;8.52;-6.00
19340;HTU21D;9804;52.350;6.684;2022-12-05T11:32:20;8.52;-6.00
19340;HTU21D;9804;52.350;6.684;2022-12-05T11:34:47;8.59;-6.00
19340;HTU21D;9804;52.350;6.684;2022-12-05T11:37:23;8.57;-6.00
19340;HTU21D;9804;52.350;6.684;2022-12-05T11:39:49;8.53;-6.00
19340;HTU21D;9804;52.350;6.684;2022-12-05T11:42:21;8.53;-6.00
19340;HTU21D;9804;52.350;6.684;2022-12-05T11:44:53;8.56;-6.00
19340;HTU21D;9804;52.350;6.684;2022-12-05T11:47:44;8.52;-6.00
19340;HTU21D;9804;52.350;6.684;2022-12-05T11:55:25;8.71;-6.00
19340;HTU21D;9804;52.350;6.684;2022-12-05T12:11:32;8.56;-6.00
19340;HTU21D;9804;52.350;6.684;2022-12-05T12:14:16;8.67;-6.00
19340;HTU21D;9804;52.350;6.684;2022-12-05T12:22:26;8.62;-6.00
19340;HTU21D;9804;52.350;6.684;2022-12-05T12:25:07;8.44;-6.00
19340;HTU21D;9804;52.350;6.684;2022-12-05T12:30:29;8.62;-6.00
19340;HTU21D;9804;52.350;6.684;2022-12-05T12:33:13;8.66;-6.00
19340;HTU21D;9804;52.350;6.684;2022-12-05T12:35:55;8.56;-6.00
19340;HTU21D;9804;52.350;6.684;2022-12-05T12:38:37;8.61;-6.00
19340;HTU21D;9804;52.350;6.684;2022-12-05T12:43:53;8.71;-6.00
19340;HTU21D;9804;52.350;6.684;2022-12-05T12:49:31;8.60;-6.00
19340;HTU21D;9804;52.350;6.684;2022-12-05T12:52:22;8.45;-6.00
19340;HTU21D;9804;52.350;6.684;2022-12-05T12:54:53;8.43;-6.00
19340;HTU21D;9804;52.350;6.684;2022-12-05T13:02:57;8.70;-6.00
19340;HTU21D;9804;52.350;6.684;2022-12-05T13:05:40;8.20;-6.00
19340;HTU21D;9804;52.350;6.684;2022-12-05T13:08:11;8.42;-6.00
19340;HTU21D;9804;52.350;6.684;2022-12-05T13:10:41;8.42;-6.00
19340;HTU21D;9804;52.350;6.684;2022-12-05T13:13:12;8.49;-6.00
19340;HTU21D;9804;52.350;6.684;2022-12-05T13:15:40;8.38;-6.00
19340;HTU21D;9804;52.350;6.684;2022-12-05T13:18:15;8.44;-6.00
19340;HTU21D;9804;52.350;6.684;2022-12-05T13:20:41;8.50;-6.00
19340;HTU21D;9804;52.350;6.684;2022-12-05T13:23:10;8.52;-6.00
19340;HTU21D;9804;52.350;6.684;2022-12-05T13:25:38;8.67;-6.00
19340;HTU21D;9804;52.350;6.684;2022-12-05T13:28:05;8.44;-6.00
19340;HTU21D;9804;52.350;6.684;2022-12-05T13:30:33;8.44;-6.00
19340;HTU21D;9804;52.350;6.684;2022-12-05T13:33:19;8.39;-6.00
19340;HTU21D;9804;52.350;6.684;2022-12-05T13:35:54;8.51;-6.00
19340;HTU21D;9804;52.350;6.684;2022-12-05T13:38:39;8.45;-6.00
19340;HTU21D;9804;52.350;6.684;2022-12-05T13:41:44;8.59;-6.00
19340;HTU21D;9804;52.350;6.684;2022-12-05T13:44:41;8.57;-6.00
19340;HTU21D;9804;52.350;6.684;2022-12-05T13:50:07;8.59;-6.00
19340;HTU21D;9804;52.350;6.684;2022-12-05T13:53:03;8.33;-6.00
19340;HTU21D;9804;52.350;6.684;2022-12-05T13:55:38;8.49;-6.00
19340;HTU21D;9804;52.350;6.684;2022-12-05T14:00:44;8.73;-6.00
19340;HTU21D;9804;52.350;6.684;2022-12-05T14:03:16;8.65;-6.00
19340;HTU21D;9804;52.350;6.684;2022-12-05T14:05:47;8.57;-6.00
19340;HTU21D;9804;52.350;6.684;2022-12-05T14:11:08;8.56;-6.00
19340;HTU21D;9804;52.350;6.684;2022-12-05T14:13:39;8.67;-6.00
19340;HTU21D;9804;52.350;6.684;2022-12-05T14:19:03;8.20;-6.00
19340;HTU21D;9804;52.350;6.684;2022-12-05T14:21:58;8.57;-6.00
19340;HTU21D;9804;52.350;6.684;2022-12-05T14:24:37;8.07;-6.00
19340;HTU21D;9804;52.350;6.684;2022-12-05T14:27:19;8.37;-6.00
19340;HTU21D;9804;52.350;6.684;2022-12-05T14:30:04;8.36;-6.00
19340;HTU21D;9804;52.350;6.684;2022-12-05T14:32:31;8.41;-6.00
19340;HTU21D;9804;52.350;6.684;2022-12-05T14:35:12;8.29;-6.00
19340;HTU21D;9804;52.350;6.684;2022-12-05T14:37:41;8.21;-6.00
19340;HTU21D;9804;52.350;6.684;2022-12-05T14:43:06;8.16;-6.00
19340;HTU21D;9804;52.350;6.684;2022-12-05T14:50:44;8.53;-6.00
19340;HTU21D;9804;52.350;6.684;2022-12-05T14:56:02;8.39;-6.00
19340;HTU21D;9804;52.350;6.684;2022-12-05T14:58:49;8.34;-6.00
19340;HTU21D;9804;52.350;6.684;2022-12-05T15:04:05;8.42;-6.00
19340;HTU21D;9804;52.350;6.684;2022-12-05T15:06:34;8.42;-6.00
19340;HTU21D;9804;52.350;6.684;2022-12-05T15:09:05;8.34;-6.00
19340;HTU21D;9804;52.350;6.684;2022-12-05T15:11:32;8.26;-6.00
19340;HTU21D;9804;52.350;6.684;2022-12-05T15:14:12;8.46;-6.00
19340;HTU21D;9804;52.350;6.684;2022-12-05T15:16:43;8.56;-6.00
19340;HTU21D;9804;52.350;6.684;2022-12-05T15:19:22;8.52;-6.00
19340;HTU21D;9804;52.350;6.684;2022-12-05T15:21:55;8.35;-6.00
19340;HTU21D;9804;52.350;6.684;2022-12-05T15:24:22;8.48;-6.00
19340;HTU21D;9804;52.350;6.684;2022-12-05T15:26:55;8.49;-6.00
19340;HTU21D;9804;52.350;6.684;2022-12-05T15:32:00;8.22;-6.00
19340;HTU21D;9804;52.350;6.684;2022-12-05T15:34:48;8.49;-6.00
19340;HTU21D;9804;52.350;6.684;2022-12-05T15:39:59;8.44;-6.00
19340;HTU21D;9804;52.350;6.684;2022-12-05T15:42:26;8.41;-6.00
19340;HTU21D;9804;52.350;6.684;2022-12-05T15:44:59;8.43;-6.00
19340;HTU21D;9804;52.350;6.684;2022-12-05T15:47:34;8.39;-6.00
19340;HTU21D;9804;52.350;6.684;2022-12-05T15:49:59;8.47;-6.00
19340;HTU21D;9804;52.350;6.684;2022-12-05T15:52:39;8.37;-6.00
19340;HTU21D;9804;52.350;6.684;2022-12-05T15:55:13;8.32;-6.00
19340;HTU21D;9804;52.350;6.684;2022-12-05T15:57:53;8.37;-6.00
19340;HTU21D;9804;52.350;6.684;2022-12-05T16:00:21;8.37;-6.00
19340;HTU21D;9804;52.350;6.684;2022-12-05T16:03:20;8.53;-6.00
19340;HTU21D;9804;52.350;6.684;2022-12-05T16:05:51;8.45;-6.00
19340;HTU21D;9804;52.350;6.684;2022-12-05T16:08:19;8.31;-6.00
19340;HTU21D;9804;52.350;6.684;2022-12-05T16:10:45;8.37;-6.00
19340;HTU21D;9804;52.350;6.684;2022-12-05T16:13:13;8.36;-6.00
19340;HTU21D;9804;52.350;6.684;2022-12-05T16:15:48;8.37;-6.00
19340;HTU21D;9804;52.350;6.684;2022-12-05T16:18:26;8.53;-6.00
19340;HTU21D;9804;52.350;6.684;2022-12-05T16:20:53;8.37;-6.00
19340;HTU21D;9804;52.350;6.684;2022-12-05T16:25:50;8.37;-6.00
19340;HTU21D;9804;52.350;6.684;2022-12-05T16:28:17;8.28;-6.00
19340;HTU21D;9804;52.350;6.684;2022-12-05T16:30:55;8.23;-6.00
19340;HTU21D;9804;52.350;6.684;2022-12-05T16:33:21;8.32;-6.00
19340;HTU21D;9804;52.350;6.684;2022-12-05T16:35:47;8.26;-6.00
19340;HTU21D;9804;52.350;6.684;2022-12-05T16:43:25;8.08;-6.00
19340;HTU21D;9804;52.350;6.684;2022-12-05T16:45:52;8.09;-6.00
19340;HTU21D;9804;52.350;6.684;2022-12-05T16:48:29;8.39;-6.00
19340;HTU21D;9804;52.350;6.684;2022-12-05T16:53:35;8.34;-6.00
19340;HTU21D;9804;52.350;6.684;2022-12-05T16:56:03;8.64;-6.00
19340;HTU21D;9804;52.350;6.684;2022-12-05T16:58:29;8.47;-6.00
19340;HTU21D;9804;52.350;6.684;2022-12-05T17:01:03;8.56;-6.00
19340;HTU21D;9804;52.350;6.684;2022-12-05T17:03:29;8.51;-6.00
19340;HTU21D;9804;52.350;6.684;2022-12-05T17:05:56;8.57;-6.00
19340;HTU21D;9804;52.350;6.684;2022-12-05T17:08:21;8.52;-6.00
19340;HTU21D;9804;52.350;6.684;2022-12-05T17:10:47;8.55;-6.00
19340;HTU21D;9804;52.350;6.684;2022-12-05T17:13:14;8.45;-6.00
19340;HTU21D;9804;52.350;6.684;2022-12-05T17:15:40;8.44;-6.00
19340;HTU21D;9804;52.350;6.684;2022-12-05T17:18:11;8.17;-6.00
19340;HTU21D;9804;52.350;6.684;2022-12-05T17:20:39;8.39;-6.00
19340;HTU21D;9804;52.350;6.684;2022-12-05T17:23:07;8.47;-6.00
19340;HTU21D;9804;52.350;6.684;2022-12-05T17:25:35;8.57;-6.00
19340;HTU21D;9804;52.350;6.684;2022-12-05T17:28:02;8.50;-6.00
19340;HTU21D;9804;52.350;6.684;2022-12-05T17:30:27;8.60;-6.00
19340;HTU21D;9804;52.350;6.684;2022-12-05T17:32:53;8.28;-6.00
19340;HTU21D;9804;52.350;6.684;2022-12-05T17:35:20;8.38;-6.00
19340;HTU21D;9804;52.350;6.684;2022-12-05T17:37:56;8.38;-6.00
19340;HTU21D;9804;52.350;6.684;2022-12-05T17:40:22;8.32;-6.00
19340;HTU21D;9804;52.350;6.684;2022-12-05T17:42:47;8.51;-6.00
19340;HTU21D;9804;52.350;6.684;2022-12-05T17:45:14;8.22;-6.00
19340;HTU21D;9804;52.350;6.684;2022-12-05T17:47:40;8.36;-6.00
19340;HTU21D;9804;52.350;6.684;2022-12-05T17:50:13;8.38;-6.00
19340;HTU21D;9804;52.350;6.684;2022-12-05T17:52:39;8.35;-6.00
19340;HTU21D;9804;52.350;6.684;2022-12-05T17:55:06;8.32;-6.00
19340;HTU21D;9804;52.350;6.684;2022-12-05T17:57:31;8.33;-6.00
19340;HTU21D;9804;52.350;6.684;2022-12-05T17:59:57;8.42;-6.00
19340;HTU21D;9804;52.350;6.684;2022-12-05T18:02:22;8.46;-6.00
19340;HTU21D;9804;52.350;6.684;2022-12-05T18:04:48;8.22;-6.00
19340;HTU21D;9804;52.350;6.684;2022-12-05T18:07:13;8.37;-6.00
19340;HTU21D;9804;52.350;6.684;2022-12-05T18:09:39;8.38;-6.00
19340;HTU21D;9804;52.350;6.684;2022-12-05T18:12:04;8.45;-6.00
19340;HTU21D;9804;52.350;6.684;2022-12-05T18:14:30;8.16;-6.00
19340;HTU21D;9804;52.350;6.684;2022-12-05T18:16:59;8.30;-6.00